Sitges, Spain
Current Conditions -  °F | °C
As of 8:00 PM on Thursday 30 Oct 2014 (Local Time) from LEBL Reporting Station
Broken Clouds Broken Clouds  
Wind Chill: 19°   Ceiling: 1800
Heat Index: 19°   Visibility: 4mi
Dew Point: 16°   Wind: 2mph
Humidity: 83%   Direction: 360°N
Pressure: 30.21"   Gusts: NA
Location:  41.24°N, 1.81°E
Report Text: LEBL 301900Z 36002KT 6000 SCT015 BKN018 19/16 Q1023 NOSIG
Loading
Personal Weather Stations






























Interactive Weather Map
Tropical Storm Tracking
New forecast layout! Learn more

10-Day Weather Forecast

Advertisements
Track Severe Weather on mobile